createdAt,value
2022-11-24T00:00:30.616Z,99898.67
2022-11-24T00:03:05.233Z,99899.59
2022-11-24T00:05:39.401Z,99897.39
2022-11-24T00:08:15.118Z,99885.78
2022-11-24T00:10:47.860Z,99888.73
2022-11-24T00:13:21.312Z,99884.11
2022-11-24T00:15:54.509Z,99891.83
2022-11-24T00:18:27.783Z,99896.84
2022-11-24T00:21:00.770Z,99899.27
2022-11-24T00:23:34.705Z,99898.89
2022-11-24T00:26:20.388Z,99897.22
2022-11-24T00:28:56.373Z,99895.50
2022-11-24T00:31:35.472Z,99899.35
2022-11-24T00:34:16.366Z,99901.69
2022-11-24T00:36:49.159Z,99906.17
2022-11-24T00:39:22.412Z,99898.20
2022-11-24T00:41:55.367Z,99899.46
2022-11-24T00:44:28.327Z,99894.83
2022-11-24T00:47:01.267Z,99904.22
2022-11-24T00:49:34.319Z,99900.88
2022-11-24T00:52:07.797Z,99905.23
2022-11-24T00:54:40.916Z,99895.84
2022-11-24T00:57:13.925Z,99903.58
2022-11-24T00:59:46.824Z,99893.26
2022-11-24T01:02:19.994Z,99886.81
2022-11-24T01:04:53.025Z,99892.71
2022-11-24T01:07:26.457Z,99892.59
2022-11-24T01:09:59.275Z,99896.59
2022-11-24T01:12:32.611Z,99883.01
2022-11-24T01:15:06.410Z,99886.23
2022-11-24T01:17:39.577Z,99883.02
2022-11-24T01:20:13.583Z,99890.97
2022-11-24T01:22:50.294Z,99889.59
2022-11-24T01:25:23.371Z,99885.80
2022-11-24T01:27:56.594Z,99883.75
2022-11-24T01:30:30.502Z,99884.27
2022-11-24T01:33:04.042Z,99879.72
2022-11-24T01:35:37.790Z,99863.59
2022-11-24T01:38:11.032Z,99858.83
2022-11-24T01:40:44.892Z,99858.83
2022-11-24T01:43:23.009Z,99858.83
2022-11-24T01:45:56.662Z,99854.55
2022-11-24T01:48:34.158Z,99858.55
2022-11-24T01:51:16.388Z,99864.23
2022-11-24T01:53:53.519Z,99866.26
2022-11-24T01:56:26.828Z,99856.58
2022-11-24T01:59:02.206Z,99846.65
2022-11-24T02:01:35.188Z,99847.25
2022-11-24T02:04:12.294Z,99846.61
2022-11-24T02:06:46.575Z,99847.78
2022-11-24T02:09:27.839Z,99843.50
2022-11-24T02:12:02.232Z,99838.63
2022-11-24T02:14:37.162Z,99837.61
2022-11-24T02:17:10.379Z,99831.41
2022-11-24T02:19:48.492Z,99821.36
2022-11-24T02:22:38.042Z,99830.67
2022-11-24T02:25:18.829Z,99826.56
2022-11-24T02:27:54.131Z,99828.61
2022-11-24T02:30:27.830Z,99826.80
2022-11-24T02:33:01.736Z,99820.63
2022-11-24T02:35:35.890Z,99822.44
2022-11-24T02:38:10.420Z,99828.09
2022-11-24T02:40:47.115Z,99828.09
2022-11-24T02:43:23.905Z,99826.44
2022-11-24T02:45:56.805Z,99825.14
2022-11-24T02:48:30.006Z,99822.16
2022-11-24T02:51:02.928Z,99821.39
2022-11-24T02:53:36.375Z,99818.29
2022-11-24T02:56:09.913Z,99821.77
2022-11-24T02:58:43.146Z,99809.53
2022-11-24T03:01:16.624Z,99808.00
2022-11-24T03:03:49.632Z,99806.99
2022-11-24T03:06:22.538Z,99804.29
2022-11-24T03:08:55.652Z,99802.35
2022-11-24T03:11:28.670Z,99798.36
2022-11-24T03:14:01.766Z,99798.77
2022-11-24T03:16:36.023Z,99799.38
2022-11-24T03:19:09.164Z,99810.46
2022-11-24T03:21:42.046Z,99808.37
2022-11-24T03:24:15.651Z,99803.61
2022-11-24T03:26:48.534Z,99808.48
2022-11-24T03:29:21.641Z,99800.87
2022-11-24T03:31:55.465Z,99795.70
2022-11-24T03:34:28.675Z,99794.53
2022-11-24T03:37:01.715Z,99782.15
2022-11-24T03:39:35.272Z,99776.22
2022-11-24T03:42:08.558Z,99782.67
2022-11-24T03:44:41.468Z,99775.70
2022-11-24T03:47:15.005Z,99782.67
2022-11-24T03:49:47.934Z,99782.79
2022-11-24T03:52:20.851Z,99786.78
2022-11-24T03:54:54.890Z,99786.38
2022-11-24T03:57:28.125Z,99790.25
2022-11-24T04:00:01.231Z,99781.98
2022-11-24T04:02:36.661Z,99785.61
2022-11-24T04:05:10.561Z,99776.58
2022-11-24T04:07:43.520Z,99771.78
2022-11-24T04:10:17.267Z,99775.41
2022-11-24T04:12:50.446Z,99770.94
2022-11-24T04:15:24.547Z,99779.73
2022-11-24T04:17:58.782Z,99780.90
2022-11-24T04:20:31.781Z,99774.56
2022-11-24T04:23:04.849Z,99767.83
2022-11-24T04:25:38.812Z,99758.03
2022-11-24T04:28:13.695Z,99757.50
2022-11-24T04:30:46.894Z,99764.73
2022-11-24T04:33:20.180Z,99764.36
2022-11-24T04:35:55.390Z,99758.68
2022-11-24T04:39:19.537Z,99760.09
2022-11-24T04:41:04.980Z,99763.96
2022-11-24T04:43:40.788Z,99763.96
2022-11-24T04:46:14.536Z,99769.64
2022-11-24T04:48:49.286Z,99767.30
2022-11-24T04:51:22.287Z,99761.73
2022-11-24T04:53:55.397Z,99766.13
2022-11-24T04:56:28.408Z,99769.72
2022-11-24T04:59:07.874Z,99764.96
2022-11-24T05:01:37.604Z,99764.44
2022-11-24T05:04:13.610Z,99763.15
2022-11-24T05:06:46.616Z,99756.30
2022-11-24T05:09:19.911Z,99752.42
2022-11-24T05:11:53.058Z,99756.30
2022-11-24T05:14:27.343Z,99749.47
2022-11-24T05:17:00.718Z,99752.66
2022-11-24T05:19:34.204Z,99744.91
2022-11-24T05:22:07.303Z,99748.91
2022-11-24T05:24:40.500Z,99749.95
2022-11-24T05:27:13.901Z,99743.86
2022-11-24T05:29:46.780Z,99743.05
2022-11-24T05:32:19.955Z,99744.05
2022-11-24T05:34:54.214Z,99745.58
2022-11-24T05:37:28.953Z,99750.09
2022-11-24T05:40:01.777Z,99747.34
2022-11-24T05:42:47.260Z,99751.56
2022-11-24T05:45:22.435Z,99753.21
2022-11-24T05:47:55.629Z,99744.23
2022-11-24T05:50:28.709Z,99746.11
2022-11-24T05:53:11.564Z,99749.16
2022-11-24T05:55:45.103Z,99751.44
2022-11-24T05:58:18.576Z,99748.91
2022-11-24T06:00:51.338Z,99749.37
2022-11-24T06:03:24.928Z,99754.07
2022-11-24T06:05:57.823Z,99752.87
2022-11-24T06:08:31.323Z,99756.80
2022-11-24T06:11:06.739Z,99749.09
2022-11-24T06:13:39.416Z,99755.72
2022-11-24T06:16:13.193Z,99757.34
2022-11-24T06:18:45.999Z,99761.16
2022-11-24T06:21:18.975Z,99759.72
2022-11-24T06:23:51.831Z,99761.46
2022-11-24T06:26:25.778Z,99760.73
2022-11-24T06:28:58.714Z,99759.47
2022-11-24T06:31:33.009Z,99753.81
2022-11-24T06:34:08.551Z,99758.55
2022-11-24T06:36:42.111Z,99757.70
2022-11-24T06:39:14.922Z,99750.37
2022-11-24T06:41:54.032Z,99750.09
2022-11-24T06:44:27.635Z,99752.72
2022-11-24T06:47:01.134Z,99743.09
2022-11-24T06:49:34.070Z,99734.05
2022-11-24T06:52:07.515Z,99726.71
2022-11-24T06:54:40.216Z,99733.31
2022-11-24T06:57:13.036Z,99729.96
2022-11-24T06:59:46.086Z,99720.64
2022-11-24T07:02:18.898Z,99712.20
2022-11-24T07:04:52.100Z,99714.91
2022-11-24T07:07:25.087Z,99711.02
2022-11-24T07:09:58.095Z,99712.94
2022-11-24T07:12:49.458Z,99702.67
2022-11-24T07:15:39.462Z,99707.58
2022-11-24T07:18:12.590Z,99711.36
2022-11-24T07:20:45.423Z,99705.69
2022-11-24T07:23:18.508Z,99702.88
2022-11-24T07:25:51.695Z,99707.19
2022-11-24T07:28:25.052Z,99695.59
2022-11-24T07:30:58.058Z,99702.70
2022-11-24T07:33:31.999Z,99694.00
2022-11-24T07:36:07.399Z,99692.27
2022-11-24T07:38:40.395Z,99689.65
2022-11-24T07:41:16.612Z,99692.53
2022-11-24T07:43:50.819Z,99691.84
2022-11-24T07:46:23.903Z,99691.81
2022-11-24T07:48:56.895Z,99685.70
2022-11-24T07:51:30.147Z,99695.08
2022-11-24T07:54:03.440Z,99685.86
2022-11-24T07:56:36.879Z,99689.34
2022-11-24T07:59:09.740Z,99687.59
2022-11-24T08:01:42.718Z,99685.13
2022-11-24T08:04:15.460Z,99678.91
2022-11-24T08:06:48.476Z,99674.03
2022-11-24T08:09:21.120Z,99670.62
2022-11-24T08:11:53.992Z,99673.70
2022-11-24T08:14:26.637Z,99668.47
2022-11-24T08:17:00.390Z,99667.54
2022-11-24T08:19:33.289Z,99662.65
2022-11-24T08:22:06.019Z,99670.73
2022-11-24T08:24:39.185Z,99669.02
2022-11-24T08:27:11.978Z,99665.13
2022-11-24T08:29:45.320Z,99664.16
2022-11-24T08:32:22.181Z,99654.41
2022-11-24T08:34:59.507Z,99658.98
2022-11-24T08:37:27.891Z,99668.66
2022-11-24T08:40:00.884Z,99667.44
2022-11-24T08:42:34.251Z,99667.86
2022-11-24T08:45:19.890Z,99654.83
2022-11-24T08:47:42.131Z,99667.44
2022-11-24T08:50:15.186Z,99669.80
2022-11-24T08:52:47.923Z,99661.59
2022-11-24T08:55:22.473Z,99664.45
2022-11-24T08:57:55.837Z,99662.89
2022-11-24T09:00:28.498Z,99656.38
2022-11-24T09:03:01.421Z,99655.94
2022-11-24T09:05:52.172Z,99646.22
2022-11-24T09:08:09.552Z,99652.17
2022-11-24T09:10:43.455Z,99651.28
2022-11-24T09:13:16.855Z,99650.22
2022-11-24T09:15:50.066Z,99643.94
2022-11-24T09:18:28.878Z,99645.86
2022-11-24T09:21:10.262Z,99633.83
2022-11-24T09:23:42.832Z,99634.87
2022-11-24T09:26:30.496Z,99635.03
2022-11-24T09:29:05.922Z,99624.83
2022-11-24T09:31:40.071Z,99628.21
2022-11-24T09:34:17.634Z,99625.57
2022-11-24T09:36:51.956Z,99606.81
2022-11-24T09:39:24.715Z,99596.61
2022-11-24T09:42:11.422Z,99591.62
2022-11-24T09:44:54.718Z,99583.59
2022-11-24T09:47:47.112Z,99583.02
2022-11-24T09:50:27.276Z,99584.54
2022-11-24T09:53:13.689Z,99581.58
2022-11-24T09:55:58.325Z,99586.95
2022-11-24T09:58:55.742Z,99590.94
2022-11-24T10:01:37.828Z,99590.66
2022-11-24T10:04:33.170Z,99582.48
2022-11-24T10:07:29.139Z,99575.58
2022-11-24T10:10:24.824Z,99575.15
2022-11-24T10:13:21.406Z,99581.60
2022-11-24T10:16:17.798Z,99584.21
2022-11-24T10:19:01.604Z,99577.27
2022-11-24T10:21:56.942Z,99577.76
2022-11-24T10:24:58.548Z,99574.34
2022-11-24T10:27:45.107Z,99580.09
2022-11-24T10:30:22.726Z,99575.86
2022-11-24T10:33:16.170Z,99560.27
2022-11-24T10:35:53.718Z,99555.59
2022-11-24T10:38:40.018Z,99555.31
2022-11-24T10:41:23.745Z,99554.14
2022-11-24T10:43:59.229Z,99550.38
2022-11-24T10:46:39.070Z,99556.97
2022-11-24T10:49:07.863Z,99558.35
2022-11-24T10:52:01.697Z,99554.43
2022-11-24T10:54:36.396Z,99556.66
2022-11-24T10:57:09.632Z,99552.31
2022-11-24T10:59:42.323Z,99553.13
2022-11-24T11:02:37.711Z,99542.30
2022-11-24T11:05:37.535Z,99535.34
2022-11-24T11:08:30.794Z,99536.23
2022-11-24T11:11:16.987Z,99513.64
2022-11-24T11:14:03.984Z,99512.73
2022-11-24T11:16:49.538Z,99510.47
2022-11-24T11:19:49.484Z,99503.80
2022-11-24T11:22:31.852Z,99499.81
2022-11-24T11:25:17.997Z,99501.94
2022-11-24T11:27:51.382Z,99494.95
2022-11-24T11:35:39.116Z,99502.28
2022-11-24T11:38:13.693Z,99494.88
2022-11-24T11:40:46.637Z,99496.57
2022-11-24T11:43:35.316Z,99496.92
2022-11-24T11:46:16.319Z,99496.05
2022-11-24T11:48:50.006Z,99484.72
2022-11-24T11:51:55.690Z,99484.72
2022-11-24T11:54:51.250Z,99487.78
2022-11-24T11:57:40.734Z,99492.66
2022-11-24T12:00:19.539Z,99495.16
2022-11-24T12:03:15.193Z,99502.84
2022-11-24T12:06:15.649Z,99494.03
2022-11-24T12:09:30.829Z,99493.43
2022-11-24T12:12:09.660Z,99492.05
2022-11-24T12:15:19.846Z,99493.43
2022-11-24T12:18:00.330Z,99490.81
2022-11-24T12:20:49.495Z,99487.36
2022-11-24T12:23:46.424Z,99485.98
2022-11-24T12:26:49.376Z,99483.16
2022-11-24T12:30:01.358Z,99488.66
2022-11-24T12:33:05.932Z,99488.13
2022-11-24T12:35:46.113Z,99491.91
2022-11-24T12:38:57.024Z,99494.30
2022-11-24T12:41:43.128Z,99497.00
2022-11-24T12:44:58.510Z,99500.73
2022-11-24T12:48:10.066Z,99495.30
2022-11-24T12:50:45.752Z,99497.61
2022-11-24T12:53:23.374Z,99500.38
2022-11-24T12:56:00.214Z,99505.37
2022-11-24T12:58:55.616Z,99503.03
2022-11-24T13:01:33.729Z,99502.58
2022-11-24T13:04:27.493Z,99504.12
2022-11-24T13:07:06.685Z,99498.36
2022-11-24T13:09:40.432Z,99501.55
2022-11-24T13:12:15.608Z,99501.41
2022-11-24T13:14:49.841Z,99503.39
2022-11-24T13:17:38.357Z,99500.14
2022-11-24T13:20:27.302Z,99500.88
2022-11-24T13:23:06.225Z,99498.53
2022-11-24T13:25:40.576Z,99500.10
2022-11-24T13:28:28.386Z,99491.98
2022-11-24T13:30:58.819Z,99495.58
2022-11-24T13:33:34.348Z,99495.77
2022-11-24T13:36:14.317Z,99497.72
2022-11-24T13:38:51.763Z,99499.28
2022-11-24T13:41:44.413Z,99496.91
2022-11-24T13:44:25.588Z,99495.83
2022-11-24T13:47:07.009Z,99492.91
2022-11-24T13:49:43.163Z,99497.08
2022-11-24T13:52:44.082Z,99499.03
2022-11-24T13:55:21.740Z,99496.30
2022-11-24T13:58:01.426Z,99503.03
2022-11-24T14:00:58.428Z,99500.19
2022-11-24T14:04:07.124Z,99503.47
2022-11-24T14:06:39.418Z,99510.54
2022-11-24T14:09:38.726Z,99506.81
2022-11-24T14:12:24.171Z,99510.05
2022-11-24T14:15:01.965Z,99506.33
2022-11-24T14:17:35.083Z,99506.49
2022-11-24T14:20:12.655Z,99508.05
2022-11-24T14:22:46.175Z,99509.56
2022-11-24T14:25:31.488Z,99519.81
2022-11-24T14:28:04.473Z,99511.45
2022-11-24T14:30:37.324Z,99524.05
2022-11-24T14:33:15.637Z,99523.47
2022-11-24T14:35:51.367Z,99517.71
2022-11-24T14:38:24.400Z,99520.15
2022-11-24T14:40:58.183Z,99525.65
2022-11-24T14:43:34.929Z,99521.28
2022-11-24T14:46:10.815Z,99521.61
2022-11-24T14:48:54.537Z,99519.98
2022-11-24T14:51:37.042Z,99518.59
2022-11-24T14:54:20.162Z,99512.42
2022-11-24T14:57:07.398Z,99508.81
2022-11-24T14:59:40.263Z,99511.75
2022-11-24T15:02:47.251Z,99516.88
2022-11-24T15:05:25.229Z,99521.48
2022-11-24T15:08:04.379Z,99515.81
2022-11-24T15:10:41.028Z,99519.13
2022-11-24T15:13:22.259Z,99535.16
2022-11-24T15:16:03.100Z,99525.47
2022-11-24T15:18:50.910Z,99528.48
2022-11-24T15:21:37.880Z,99523.28
2022-11-24T15:24:21.416Z,99522.78
2022-11-24T15:27:02.030Z,99527.52
2022-11-24T15:29:35.115Z,99540.34
2022-11-24T15:32:13.706Z,99545.84
2022-11-24T15:34:46.914Z,99546.77
2022-11-24T15:37:19.609Z,99550.08
2022-11-24T15:39:53.217Z,99548.78
2022-11-24T15:42:26.127Z,99547.39
2022-11-24T15:44:58.826Z,99537.31
2022-11-24T15:47:31.731Z,99530.23
2022-11-24T15:50:04.540Z,99528.75
2022-11-24T15:52:37.501Z,99532.90
2022-11-24T15:55:18.763Z,99539.64
2022-11-24T15:57:51.783Z,99543.45
2022-11-24T16:00:25.643Z,99543.19
2022-11-24T16:03:02.012Z,99542.93
2022-11-24T16:05:34.170Z,99540.06
2022-11-24T16:08:15.977Z,99534.61
2022-11-24T16:10:48.944Z,99530.53
2022-11-24T16:13:22.315Z,99535.55
2022-11-24T16:15:55.098Z,99541.08
2022-11-24T16:18:28.181Z,99543.08
2022-11-24T16:21:01.147Z,99541.92
2022-11-24T16:23:36.486Z,99554.23
2022-11-24T16:26:10.679Z,99553.59
2022-11-24T16:28:45.513Z,99552.58
2022-11-24T16:31:19.354Z,99561.58
2022-11-24T16:33:52.144Z,99556.62
2022-11-24T16:36:26.334Z,99559.21
2022-11-24T16:39:02.545Z,99559.03
2022-11-24T16:41:35.472Z,99559.73
2022-11-24T16:44:08.193Z,99550.08
2022-11-24T16:46:41.036Z,99553.38
2022-11-24T16:49:13.904Z,99544.20
2022-11-24T16:51:46.646Z,99551.02
2022-11-24T16:54:20.850Z,99550.04
2022-11-24T16:56:53.918Z,99540.35
2022-11-24T16:59:26.804Z,99546.16
2022-11-24T17:01:59.689Z,99548.19
2022-11-24T17:04:32.588Z,99546.30
2022-11-24T17:07:05.768Z,99545.32
2022-11-24T17:09:40.745Z,99534.94
2022-11-24T17:12:13.129Z,99535.34
2022-11-24T17:15:09.341Z,99529.55
2022-11-24T17:17:22.113Z,99530.26
2022-11-24T17:19:55.130Z,99533.68
2022-11-24T17:22:28.961Z,99535.27
2022-11-24T17:25:02.494Z,99538.27
2022-11-24T17:27:35.832Z,99531.38
2022-11-24T17:30:09.922Z,99531.38
2022-11-24T17:32:44.102Z,99536.56
2022-11-24T17:35:18.000Z,99542.50
2022-11-24T17:37:50.788Z,99538.45
2022-11-24T17:40:28.802Z,99536.45
2022-11-24T17:43:04.521Z,99540.27
2022-11-24T17:45:37.812Z,99543.65
2022-11-24T17:48:10.647Z,99538.96
2022-11-24T17:50:43.659Z,99534.10
2022-11-24T17:53:16.422Z,99535.58
2022-11-24T17:55:49.251Z,99539.98
2022-11-24T17:58:22.883Z,99551.25
2022-11-24T18:00:58.516Z,99549.55
2022-11-24T18:03:33.364Z,99542.27
2022-11-24T18:06:14.852Z,99540.55
2022-11-24T18:08:49.346Z,99534.80
2022-11-24T18:11:30.594Z,99536.88
2022-11-24T18:14:03.220Z,99530.20
2022-11-24T18:16:37.201Z,99539.30
2022-11-24T18:19:11.334Z,99531.92
2022-11-24T18:21:46.793Z,99532.71
2022-11-24T18:24:23.906Z,99534.80
2022-11-24T18:26:54.119Z,99548.20
2022-11-24T18:29:27.004Z,99543.32
2022-11-24T18:32:00.670Z,99537.72
2022-11-24T18:34:34.145Z,99535.13
2022-11-24T18:37:09.042Z,99521.63
2022-11-24T18:39:42.614Z,99524.17
2022-11-24T18:42:15.395Z,99527.15
2022-11-24T18:44:52.674Z,99525.28
2022-11-24T18:47:24.704Z,99530.48
2022-11-24T18:49:59.169Z,99532.16
2022-11-24T18:52:32.082Z,99534.38
2022-11-24T18:55:05.404Z,99535.06
2022-11-24T18:57:38.267Z,99541.78
2022-11-24T19:00:14.654Z,99537.38
2022-11-24T19:02:48.232Z,99540.55
2022-11-24T19:05:21.178Z,99532.98
2022-11-24T19:07:54.245Z,99535.99
2022-11-24T19:10:27.371Z,99534.09
2022-11-24T19:13:00.272Z,99537.20
2022-11-24T19:15:37.088Z,99533.63
2022-11-24T19:18:10.194Z,99536.22
2022-11-24T19:20:43.066Z,99524.54
2022-11-24T19:23:16.737Z,99520.94
2022-11-24T19:25:49.840Z,99526.00
2022-11-24T19:28:22.883Z,99519.22
2022-11-24T19:30:57.451Z,99516.53
2022-11-24T19:33:33.162Z,99512.55
2022-11-24T19:36:14.896Z,99508.05
2022-11-24T19:38:56.920Z,99512.67
2022-11-24T19:41:34.547Z,99517.45
2022-11-24T19:44:08.324Z,99513.97
2022-11-24T19:46:42.103Z,99522.55
2022-11-24T19:49:17.347Z,99523.64
2022-11-24T19:51:50.264Z,99532.22
2022-11-24T19:54:23.074Z,99528.45
2022-11-24T19:56:56.915Z,99528.34
2022-11-24T19:59:31.536Z,99528.25
2022-11-24T20:02:05.171Z,99531.66
2022-11-24T20:04:40.864Z,99531.66
2022-11-24T20:07:13.885Z,99528.98
2022-11-24T20:09:46.971Z,99526.28
2022-11-24T20:12:19.824Z,99522.30
2022-11-24T20:14:53.890Z,99521.59
2022-11-24T20:17:26.673Z,99521.59
2022-11-24T20:19:59.964Z,99524.98
2022-11-24T20:22:33.572Z,99524.09
2022-11-24T20:25:08.376Z,99520.98
2022-11-24T20:27:41.365Z,99524.50
2022-11-24T20:30:15.758Z,99523.48
2022-11-24T20:32:49.253Z,99520.42
2022-11-24T20:35:22.223Z,99525.91
2022-11-24T20:37:55.204Z,99531.48
2022-11-24T20:40:28.793Z,99532.46
2022-11-24T20:43:01.867Z,99539.35
2022-11-24T20:45:36.474Z,99535.05
2022-11-24T20:48:09.697Z,99534.17
2022-11-24T20:50:45.779Z,99541.53
2022-11-24T20:53:16.050Z,99541.63
2022-11-24T20:55:49.634Z,99543.44
2022-11-24T20:58:22.698Z,99535.25
2022-11-24T21:00:56.714Z,99539.53
2022-11-24T21:03:29.704Z,99542.70
2022-11-24T21:06:02.728Z,99540.11
2022-11-24T21:08:39.408Z,99540.84
2022-11-24T21:11:14.085Z,99543.81
2022-11-24T21:13:48.992Z,99543.34
2022-11-24T21:16:28.928Z,99536.45
2022-11-24T21:19:06.337Z,99540.92
2022-11-24T21:21:41.367Z,99540.23
2022-11-24T21:24:17.894Z,99531.16
2022-11-24T21:26:52.317Z,99533.24
2022-11-24T21:29:25.932Z,99533.05
2022-11-24T21:31:58.809Z,99536.94
2022-11-24T21:34:31.665Z,99534.75
2022-11-24T21:37:04.482Z,99533.05
2022-11-24T21:39:37.211Z,99532.06
2022-11-24T21:42:09.963Z,99529.06
2022-11-24T21:44:42.575Z,99532.48
2022-11-24T21:47:15.459Z,99532.48
2022-11-24T21:49:48.789Z,99526.38
2022-11-24T21:52:21.976Z,99524.60
2022-11-24T21:54:54.878Z,99521.50
2022-11-24T21:57:29.037Z,99515.33
2022-11-24T22:00:01.160Z,99513.21
2022-11-24T22:02:35.685Z,99514.41
2022-11-24T22:05:10.057Z,99520.52
2022-11-24T22:07:43.800Z,99515.33
2022-11-24T22:10:16.498Z,99521.91
2022-11-24T22:12:49.428Z,99525.08
2022-11-24T22:15:22.082Z,99525.27
2022-11-24T22:17:56.864Z,99528.37
2022-11-24T22:20:29.850Z,99517.69
2022-11-24T22:23:03.323Z,99521.58
2022-11-24T22:25:36.658Z,99516.39
2022-11-24T22:28:09.585Z,99523.38
2022-11-24T22:30:43.208Z,99524.87
2022-11-24T22:33:19.137Z,99524.87
2022-11-24T22:35:59.965Z,99521.86
2022-11-24T22:38:33.761Z,99520.57
2022-11-24T22:41:10.126Z,99518.39
2022-11-24T22:43:43.871Z,99521.96
2022-11-24T22:46:22.704Z,99512.57
2022-11-24T22:48:56.555Z,99521.27
2022-11-24T22:51:33.152Z,99518.67
2022-11-24T22:54:07.122Z,99524.75
2022-11-24T22:56:39.831Z,99531.23
2022-11-24T22:59:12.527Z,99537.20
2022-11-24T23:01:45.776Z,99528.54
2022-11-24T23:04:19.326Z,99536.83
2022-11-24T23:06:52.467Z,99538.13
2022-11-24T23:09:25.979Z,99526.84
2022-11-24T23:11:58.750Z,99522.06
2022-11-24T23:14:31.588Z,99516.78
2022-11-24T23:17:04.443Z,99524.55
2022-11-24T23:19:38.902Z,99526.27
2022-11-24T23:22:12.038Z,99521.96
2022-11-24T23:24:44.803Z,99519.27
2022-11-24T23:27:17.990Z,99520.88
2022-11-24T23:29:51.183Z,99513.32
2022-11-24T23:32:24.376Z,99507.02
2022-11-24T23:34:57.333Z,99509.05
2022-11-24T23:37:52.188Z,99507.24
2022-11-24T23:40:05.070Z,99502.47
2022-11-24T23:42:37.956Z,99508.03
2022-11-24T23:45:11.605Z,99503.66
2022-11-24T23:47:44.323Z,99502.17
2022-11-24T23:50:17.984Z,99507.16
2022-11-24T23:52:51.090Z,99507.06
2022-11-24T23:55:23.979Z,99507.28
2022-11-24T23:57:56.813Z,99506.27
